Time;durP1;ratioP1;P1;durP2;ratioP2;P2;SDS_P1;SDS_P2;PMS_P1;PMS_P2;Temp;Humidity;BMP_temperature;BMP_pressure;BME280_temperature;BME280_humidity;BME280_pressure;Samples;Min_cycle;Max_cycle;Signal;HPM_P1;HPM_P2
2022/11/26 00:01:42;;;;;;;2.07;0.97;;;;;;;;;;5035404;28;20044;-67
2022/11/26 00:04:09;;;;;;;2.83;1.10;;;;;;;;;;5031637;28;20313;-67
2022/11/26 00:06:38;;;;;;;2.17;1.10;;;;;;;;;;5033245;28;20186;-68
2022/11/26 00:09:10;;;;;;;2.67;0.95;;;;;;;;;;5032535;28;20056;-67
2022/11/26 00:11:36;;;;;;;3.05;0.80;;;;;;;;;;5033437;28;20118;-67
2022/11/26 00:14:10;;;;;;;3.10;1.20;;;;;;;;;;5031307;28;21320;-67
2022/11/26 00:16:36;;;;;;;2.47;1.05;;;;;;;;;;5033028;28;20052;-64
2022/11/26 00:19:02;;;;;;;2.25;1.13;;;;;;;;;;5030789;28;20041;-67
2022/11/26 00:21:29;;;;;;;3.10;0.88;;;;;;;;;;5037744;28;20040;-70
2022/11/26 00:23:55;;;;;;;2.90;0.90;;;;;;;;;;5033604;28;20053;-69
2022/11/26 00:26:23;;;;;;;3.05;0.93;;;;;;;;;;5039917;28;20045;-67
2022/11/26 00:28:55;;;;;;;3.05;0.90;;;;;;;;;;5035458;28;20620;-67
2022/11/26 00:31:22;;;;;;;4.30;0.73;;;;;;;;;;5035159;28;20110;-66
2022/11/26 00:33:48;;;;;;;1.65;0.70;;;;;;;;;;5038051;28;20471;-67
2022/11/26 00:36:27;;;;;;;2.95;0.82;;;;;;;;;;5012837;28;20677;-66
2022/11/26 00:39:08;;;;;;;3.65;0.82;;;;;;;;;;5033172;28;20048;-66
2022/11/26 00:41:37;;;;;;;1.63;0.73;;;;;;;;;;5041371;28;20495;-67
2022/11/26 00:44:14;;;;;;;2.28;0.88;;;;;;;;;;5029561;28;20143;-68
2022/11/26 00:46:39;;;;;;;1.58;0.80;;;;;;;;;;5033684;28;20106;-67
2022/11/26 00:49:05;;;;;;;1.70;0.80;;;;;;;;;;5037892;28;20052;-66
2022/11/26 00:51:31;;;;;;;2.80;1.00;;;;;;;;;;5035810;28;20055;-66
2022/11/26 00:54:00;;;;;;;2.88;1.00;;;;;;;;;;5035808;28;20057;-70
2022/11/26 00:56:26;;;;;;;2.35;0.75;;;;;;;;;;5036879;28;20048;-69
2022/11/26 00:58:53;;;;;;;6.00;1.27;;;;;;;;;;5035937;28;20053;-66
2022/11/26 01:01:24;;;;;;;2.05;0.65;;;;;;;;;;5038770;28;20105;-68
2022/11/26 01:03:50;;;;;;;3.60;0.90;;;;;;;;;;5038554;28;20053;-66
2022/11/26 01:06:25;;;;;;;2.72;0.82;;;;;;;;;;5038933;28;21076;-68
2022/11/26 01:08:51;;;;;;;1.63;0.60;;;;;;;;;;5032700;28;20327;-67
2022/11/26 01:11:20;;;;;;;3.10;1.00;;;;;;;;;;5021657;28;20060;-66
2022/11/26 01:13:48;;;;;;;2.70;1.50;;;;;;;;;;5036443;28;20537;-69
2022/11/26 01:16:29;;;;;;;2.97;0.85;;;;;;;;;;5037798;28;20864;-70
2022/11/26 01:18:57;;;;;;;5.15;1.00;;;;;;;;;;5021012;28;21330;-66
2022/11/26 01:21:25;;;;;;;3.95;0.90;;;;;;;;;;5035884;28;20906;-68
2022/11/26 01:23:52;;;;;;;2.17;0.70;;;;;;;;;;5039116;28;20146;-65
2022/11/26 01:26:20;;;;;;;3.08;1.00;;;;;;;;;;5036736;28;20134;-68
2022/11/26 01:28:46;;;;;;;3.75;0.93;;;;;;;;;;5032817;28;20048;-68
2022/11/26 01:31:18;;;;;;;1.63;0.80;;;;;;;;;;5034827;28;20129;-67
2022/11/26 01:33:45;;;;;;;2.05;0.70;;;;;;;;;;5038491;28;20064;-67
2022/11/26 01:36:31;;;;;;;1.95;0.93;;;;;;;;;;5029201;28;20522;-67
2022/11/26 01:39:19;;;;;;;3.28;1.00;;;;;;;;;;5033117;28;20145;-66
2022/11/26 01:42:09;;;;;;;3.30;1.15;;;;;;;;;;5033028;28;20079;-67
2022/11/26 01:44:36;;;;;;;3.05;1.25;;;;;;;;;;5033275;28;20057;-68
2022/11/26 01:47:27;;;;;;;2.75;1.05;;;;;;;;;;5035742;28;20045;-68
2022/11/26 01:50:45;;;;;;;2.05;0.90;;;;;;;;;;5034670;28;20102;-65
2022/11/26 01:53:37;;;;;;;3.80;0.80;;;;;;;;;;5003836;28;20045;-67
2022/11/26 01:56:18;;;;;;;4.68;0.90;;;;;;;;;;5030440;28;20045;-66
2022/11/26 01:58:51;;;;;;;1.70;0.90;;;;;;;;;;5032376;28;20526;-68
2022/11/26 02:01:18;;;;;;;5.57;1.00;;;;;;;;;;5032613;28;20525;-68
2022/11/26 02:03:53;;;;;;;2.20;1.02;;;;;;;;;;5034846;28;20068;-66
2022/11/26 02:06:24;;;;;;;1.23;0.80;;;;;;;;;;5035899;28;20772;-66
2022/11/26 02:08:50;;;;;;;2.65;0.75;;;;;;;;;;5032808;28;20056;-66
2022/11/26 02:11:23;;;;;;;2.28;0.80;;;;;;;;;;5025861;28;20512;-71
2022/11/26 02:13:52;;;;;;;1.35;0.70;;;;;;;;;;5030505;28;20690;-67
2022/11/26 02:16:23;;;;;;;2.17;0.82;;;;;;;;;;5037952;28;20053;-65
2022/11/26 02:19:19;;;;;;;1.45;0.80;;;;;;;;;;5033709;28;20063;-67
2022/11/26 02:21:51;;;;;;;4.22;0.57;;;;;;;;;;4956199;28;20054;-68
2022/11/26 02:24:49;;;;;;;2.10;0.60;;;;;;;;;;4951705;28;20051;-68
2022/11/26 02:27:43;;;;;;;1.08;0.50;;;;;;;;;;4923963;28;20400;-66
2022/11/26 02:30:11;;;;;;;2.38;0.68;;;;;;;;;;4951766;28;20043;-67
2022/11/26 02:32:59;;;;;;;6.15;0.90;;;;;;;;;;4952843;28;20050;-68
2022/11/26 02:35:44;;;;;;;2.85;1.00;;;;;;;;;;4954418;28;21424;-67
2022/11/26 02:38:37;;;;;;;2.42;0.70;;;;;;;;;;4950132;28;20058;-67
2022/11/26 02:41:03;;;;;;;2.42;0.80;;;;;;;;;;4950796;28;20054;-68
2022/11/26 02:43:31;;;;;;;2.15;0.60;;;;;;;;;;4949046;28;20109;-68
2022/11/26 02:46:02;;;;;;;5.90;1.20;;;;;;;;;;4950512;28;20070;-68
2022/11/26 02:48:33;;;;;;;3.65;0.98;;;;;;;;;;4953291;28;20062;-64
2022/11/26 02:51:12;;;;;;;1.42;0.77;;;;;;;;;;4948478;28;20169;-68
2022/11/26 02:53:39;;;;;;;1.52;0.65;;;;;;;;;;4948594;28;20117;-69
2022/11/26 02:56:12;;;;;;;1.50;0.80;;;;;;;;;;4955372;28;20046;-68
2022/11/26 02:58:38;;;;;;;1.27;0.80;;;;;;;;;;4974749;28;20048;-66
2022/11/26 03:01:10;;;;;;;2.45;1.00;;;;;;;;;;5031256;28;20051;-66
2022/11/26 03:03:45;;;;;;;2.50;0.95;;;;;;;;;;5029672;28;20430;-67
2022/11/26 03:06:11;;;;;;;;;;;;;;;;;;5038994;28;20841;-66
2022/11/26 03:08:37;;;;;;;2.03;1.00;;;;;;;;;;5034026;28;19924;-67
2022/11/26 03:11:04;;;;;;;2.40;0.80;;;;;;;;;;5036848;28;20600;-66
2022/11/26 03:13:30;;;;;;;4.55;1.02;;;;;;;;;;5031081;28;20073;-66
2022/11/26 03:15:56;;;;;;;1.60;0.88;;;;;;;;;;5030721;28;20052;-65
2022/11/26 03:18:22;;;;;;;2.83;1.20;;;;;;;;;;5027930;28;20053;-67
2022/11/26 03:20:48;;;;;;;2.97;1.00;;;;;;;;;;5032310;28;20103;-68
2022/11/26 03:23:14;;;;;;;2.20;0.80;;;;;;;;;;5032737;28;20069;-67
2022/11/26 03:25:40;;;;;;;2.80;0.73;;;;;;;;;;5033018;28;20146;-70
2022/11/26 03:28:06;;;;;;;2.40;0.70;;;;;;;;;;5029107;28;20773;-64
2022/11/26 03:30:32;;;;;;;1.70;0.70;;;;;;;;;;5031819;28;20052;-67
2022/11/26 03:32:58;;;;;;;1.80;0.60;;;;;;;;;;5033132;28;20057;-67
2022/11/26 03:35:24;;;;;;;4.05;1.00;;;;;;;;;;5028970;28;20178;-67
2022/11/26 03:37:50;;;;;;;4.70;0.93;;;;;;;;;;5030782;28;20082;-67
2022/11/26 03:40:16;;;;;;;1.08;0.70;;;;;;;;;;5029216;28;20093;-67
2022/11/26 03:42:43;;;;;;;3.05;0.75;;;;;;;;;;5034817;28;20048;-66
2022/11/26 03:45:09;;;;;;;1.92;0.63;;;;;;;;;;5032590;28;20534;-67
2022/11/26 03:47:35;;;;;;;0.85;0.65;;;;;;;;;;5030296;28;21973;-65
2022/11/26 03:50:02;;;;;;;2.03;0.90;;;;;;;;;;5034915;28;20102;-65
2022/11/26 03:52:28;;;;;;;2.38;0.63;;;;;;;;;;5028021;28;20502;-66
2022/11/26 03:54:54;;;;;;;2.03;0.60;;;;;;;;;;5031534;28;20671;-66
2022/11/26 03:57:21;;;;;;;1.15;0.60;;;;;;;;;;5028637;28;20794;-66
2022/11/26 03:59:46;;;;;;;2.10;0.70;;;;;;;;;;5029774;28;20497;-67
2022/11/26 04:02:12;;;;;;;2.38;0.90;;;;;;;;;;5030377;28;20052;-66
2022/11/26 04:04:38;;;;;;;1.52;0.60;;;;;;;;;;5031516;28;20052;-68
2022/11/26 04:07:04;;;;;;;1.50;0.70;;;;;;;;;;5028723;28;20058;-66
2022/11/26 04:09:30;;;;;;;2.70;0.90;;;;;;;;;;5027226;28;20099;-66
2022/11/26 04:11:56;;;;;;;2.20;0.93;;;;;;;;;;5031766;28;20963;-67
2022/11/26 04:14:22;;;;;;;1.33;0.70;;;;;;;;;;5030612;28;20143;-65
2022/11/26 04:16:48;;;;;;;2.47;0.90;;;;;;;;;;5030228;28;20051;-66
2022/11/26 04:19:14;;;;;;;3.78;0.85;;;;;;;;;;5030041;28;20060;-66
2022/11/26 04:21:40;;;;;;;2.65;1.02;;;;;;;;;;5033795;28;20410;-68
2022/11/26 04:24:07;;;;;;;3.20;0.80;;;;;;;;;;5038418;28;20049;-65
2022/11/26 04:26:33;;;;;;;2.65;0.90;;;;;;;;;;5039052;28;20067;-66
2022/11/26 04:28:59;;;;;;;1.48;0.68;;;;;;;;;;5030976;28;20048;-68
2022/11/26 04:31:25;;;;;;;1.95;0.52;;;;;;;;;;5037897;28;20063;-65
2022/11/26 04:33:51;;;;;;;1.73;0.75;;;;;;;;;;5034516;28;20481;-64
2022/11/26 04:36:17;;;;;;;1.05;0.63;;;;;;;;;;5033314;28;20060;-65
2022/11/26 04:38:43;;;;;;;2.08;0.75;;;;;;;;;;5031006;28;20052;-68
2022/11/26 04:41:09;;;;;;;1.02;0.57;;;;;;;;;;5036861;28;20044;-67
2022/11/26 04:43:34;;;;;;;2.63;0.60;;;;;;;;;;5033504;28;20402;-66
2022/11/26 04:46:01;;;;;;;2.17;1.05;;;;;;;;;;5033295;28;20048;-67
2022/11/26 04:48:26;;;;;;;2.15;0.85;;;;;;;;;;5031480;28;20186;-69
2022/11/26 04:50:52;;;;;;;3.00;0.80;;;;;;;;;;5036882;28;20070;-67
2022/11/26 04:53:20;;;;;;;3.55;0.95;;;;;;;;;;5034959;28;20057;-67
2022/11/26 04:55:48;;;;;;;4.00;1.00;;;;;;;;;;5034128;28;20158;-68
2022/11/26 04:58:15;;;;;;;1.50;0.98;;;;;;;;;;5035881;28;20095;-69
2022/11/26 05:00:41;;;;;;;1.85;1.00;;;;;;;;;;5030417;28;20057;-68
2022/11/26 05:03:07;;;;;;;2.78;0.90;;;;;;;;;;5033744;28;20124;-66
2022/11/26 05:05:33;;;;;;;2.35;0.90;;;;;;;;;;5034205;28;20067;-67
2022/11/26 05:07:59;;;;;;;2.05;0.90;;;;;;;;;;5036188;28;20045;-67
2022/11/26 05:10:25;;;;;;;2.15;0.80;;;;;;;;;;5035089;28;20095;-68
2022/11/26 05:12:51;;;;;;;1.77;0.80;;;;;;;;;;5035551;28;20072;-67
2022/11/26 05:15:17;;;;;;;2.17;0.90;;;;;;;;;;5037066;28;20056;-66
2022/11/26 05:17:43;;;;;;;2.90;1.00;;;;;;;;;;5030635;28;20734;-67
2022/11/26 05:20:10;;;;;;;1.33;0.73;;;;;;;;;;5034556;28;20056;-67
2022/11/26 05:22:36;;;;;;;3.22;1.30;;;;;;;;;;5037018;28;20272;-65
2022/11/26 05:25:02;;;;;;;1.77;0.73;;;;;;;;;;5035895;28;20048;-69
2022/11/26 05:27:28;;;;;;;3.85;1.40;;;;;;;;;;5038603;28;20079;-66
2022/11/26 05:29:54;;;;;;;2.97;0.85;;;;;;;;;;5031404;28;20434;-67
2022/11/26 05:32:20;;;;;;;2.22;0.77;;;;;;;;;;5031084;28;20055;-68
2022/11/26 05:34:46;;;;;;;1.40;0.80;;;;;;;;;;5039356;28;20041;-67
2022/11/26 05:37:12;;;;;;;3.15;1.00;;;;;;;;;;5033405;28;20683;-67
2022/11/26 05:39:38;;;;;;;2.50;1.17;;;;;;;;;;5033096;28;20098;-67
2022/11/26 05:42:05;;;;;;;3.83;1.30;;;;;;;;;;5034827;28;20045;-66
2022/11/26 05:44:31;;;;;;;3.10;1.00;;;;;;;;;;5025360;28;20183;-66
2022/11/26 05:46:57;;;;;;;3.05;1.27;;;;;;;;;;5030651;28;20114;-65
2022/11/26 05:49:23;;;;;;;3.72;1.00;;;;;;;;;;5027240;28;20214;-67
2022/11/26 05:51:49;;;;;;;6.75;1.10;;;;;;;;;;5031030;28;20477;-67
2022/11/26 05:54:15;;;;;;;2.90;0.90;;;;;;;;;;5036665;28;20060;-68
2022/11/26 05:56:42;;;;;;;2.88;0.95;;;;;;;;;;5028393;28;20045;-66
2022/11/26 05:59:08;;;;;;;6.05;0.85;;;;;;;;;;4996290;28;20055;-71
2022/11/26 06:01:34;;;;;;;3.22;0.90;;;;;;;;;;5011919;28;20075;-66
2022/11/26 06:04:00;;;;;;;1.38;0.70;;;;;;;;;;5030727;28;20180;-66
2022/11/26 06:06:26;;;;;;;5.63;0.85;;;;;;;;;;5027780;28;20052;-68
2022/11/26 06:08:52;;;;;;;5.68;1.10;;;;;;;;;;5029230;28;20064;-68
2022/11/26 06:11:18;;;;;;;10.95;3.50;;;;;;;;;;5028803;28;20056;-67
2022/11/26 06:13:44;;;;;;;3.15;1.27;;;;;;;;;;5030732;28;20064;-68
2022/11/26 06:16:10;;;;;;;3.08;0.90;;;;;;;;;;5033732;28;20044;-68
2022/11/26 06:18:37;;;;;;;2.45;1.00;;;;;;;;;;5028875;28;20052;-66
2022/11/26 06:21:04;;;;;;;5.25;1.10;;;;;;;;;;5012155;28;20060;-65
2022/11/26 06:23:32;;;;;;;1.25;0.85;;;;;;;;;;5013225;28;20057;-66
2022/11/26 06:25:58;;;;;;;6.47;1.40;;;;;;;;;;5008669;28;20152;-66
2022/11/26 06:28:25;;;;;;;3.40;1.30;;;;;;;;;;5011720;28;20061;-66
2022/11/26 06:30:51;;;;;;;3.60;1.23;;;;;;;;;;5010422;28;20064;-69
2022/11/26 06:33:17;;;;;;;3.85;1.55;;;;;;;;;;5017360;28;20065;-69
2022/11/26 06:35:43;;;;;;;2.63;1.55;;;;;;;;;;5017872;28;20048;-67
2022/11/26 06:38:09;;;;;;;3.60;1.52;;;;;;;;;;5010808;28;20321;-67
2022/11/26 06:40:35;;;;;;;5.22;1.50;;;;;;;;;;5010136;28;20064;-66
2022/11/26 06:43:01;;;;;;;4.90;1.50;;;;;;;;;;5017872;28;20049;-68
2022/11/26 06:45:26;;;;;;;3.50;1.42;;;;;;;;;;5018784;28;20059;-67
2022/11/26 06:47:52;;;;;;;7.93;1.70;;;;;;;;;;5013259;28;20053;-68
2022/11/26 06:50:20;;;;;;;4.38;1.50;;;;;;;;;;5012205;28;20377;-67
2022/11/26 06:52:51;;;;;;;3.53;1.30;;;;;;;;;;5015644;28;20061;-66
2022/11/26 06:55:18;;;;;;;4.07;1.50;;;;;;;;;;5021032;28;20045;-67
2022/11/26 06:57:44;;;;;;;3.88;1.65;;;;;;;;;;5013746;28;20057;-69
2022/11/26 07:00:10;;;;;;;5.78;1.73;;;;;;;;;;5013139;28;20045;-66
2022/11/26 07:02:37;;;;;;;3.75;1.50;;;;;;;;;;5012852;28;20661;-67
2022/11/26 07:05:03;;;;;;;4.10;1.60;;;;;;;;;;5005489;28;20052;-67
2022/11/26 07:07:29;;;;;;;4.30;2.00;;;;;;;;;;5001423;28;20123;-67
2022/11/26 07:09:55;;;;;;;6.95;1.85;;;;;;;;;;5003869;28;20057;-68
2022/11/26 07:12:21;;;;;;;11.98;1.92;;;;;;;;;;5005008;28;20057;-68
2022/11/26 07:14:46;;;;;;;6.68;2.10;;;;;;;;;;5007501;28;20747;-70
2022/11/26 07:17:12;;;;;;;5.90;1.90;;;;;;;;;;5005692;28;20057;-66
2022/11/26 07:19:38;;;;;;;5.68;1.90;;;;;;;;;;5008834;28;20137;-68
2022/11/26 07:22:05;;;;;;;2.47;1.60;;;;;;;;;;5024229;28;20064;-69
2022/11/26 07:24:30;;;;;;;6.75;2.03;;;;;;;;;;5030091;28;20067;-67
2022/11/26 07:26:56;;;;;;;3.90;1.95;;;;;;;;;;5028519;28;20056;-67
2022/11/26 07:29:22;;;;;;;5.05;1.52;;;;;;;;;;5027162;28;21115;-69
2022/11/26 07:31:48;;;;;;;4.60;1.80;;;;;;;;;;5026625;28;20049;-71
2022/11/26 07:34:14;;;;;;;5.93;1.70;;;;;;;;;;5025574;28;20533;-71
2022/11/26 07:36:42;;;;;;;5.85;2.05;;;;;;;;;;5021739;28;20461;-68
2022/11/26 07:39:10;;;;;;;5.03;1.60;;;;;;;;;;5022177;28;20056;-67
2022/11/26 07:41:36;;;;;;;5.72;1.88;;;;;;;;;;5020605;28;20405;-66
2022/11/26 07:44:02;;;;;;;3.55;1.60;;;;;;;;;;5025577;28;20056;-69
2022/11/26 07:46:28;;;;;;;3.58;1.65;;;;;;;;;;5023803;28;20048;-69
2022/11/26 07:48:55;;;;;;;4.95;1.77;;;;;;;;;;5024559;28;20055;-69
2022/11/26 07:51:28;;;;;;;4.18;1.75;;;;;;;;;;5023942;28;20398;-68
2022/11/26 07:53:55;;;;;;;8.00;2.00;;;;;;;;;;5022532;28;20056;-68
2022/11/26 07:56:21;;;;;;;7.85;1.73;;;;;;;;;;5027553;28;20057;-66
2022/11/26 07:58:47;;;;;;;3.92;1.75;;;;;;;;;;5028089;28;20573;-68
2022/11/26 08:01:19;;;;;;;5.63;1.80;;;;;;;;;;5029608;28;20064;-70
2022/11/26 08:03:47;;;;;;;5.53;1.80;;;;;;;;;;5032289;28;20083;-68
2022/11/26 08:06:16;;;;;;;6.82;1.92;;;;;;;;;;5028033;28;20053;-70
2022/11/26 08:08:42;;;;;;;7.63;2.25;;;;;;;;;;5026805;28;20889;-69
2022/11/26 08:11:14;;;;;;;6.35;2.00;;;;;;;;;;5030563;28;20048;-67
2022/11/26 08:13:41;;;;;;;10.77;3.13;;;;;;;;;;5026866;28;20663;-68
2022/11/26 08:16:07;;;;;;;9.27;2.95;;;;;;;;;;5027901;28;20055;-68
2022/11/26 08:18:33;;;;;;;7.25;2.17;;;;;;;;;;5026007;28;20048;-70
2022/11/26 08:20:59;;;;;;;7.55;2.55;;;;;;;;;;5016687;28;20196;-69
2022/11/26 08:23:27;;;;;;;11.02;2.28;;;;;;;;;;5034330;28;20538;-71
2022/11/26 08:25:53;;;;;;;14.13;2.30;;;;;;;;;;5034357;28;20061;-71
2022/11/26 08:28:19;;;;;;;8.30;1.85;;;;;;;;;;5032820;28;20596;-69
2022/11/26 08:30:45;;;;;;;5.40;1.88;;;;;;;;;;5035428;28;20418;-68
2022/11/26 08:33:11;;;;;;;4.65;1.65;;;;;;;;;;5032903;28;20085;-68
2022/11/26 08:35:37;;;;;;;4.65;1.63;;;;;;;;;;5037141;28;20518;-70
2022/11/26 08:38:03;;;;;;;6.53;1.90;;;;;;;;;;5034852;28;20041;-69
2022/11/26 08:40:30;;;;;;;4.47;1.77;;;;;;;;;;5033964;28;20061;-66
2022/11/26 08:42:56;;;;;;;6.32;1.90;;;;;;;;;;5036594;28;20052;-71
2022/11/26 08:45:22;;;;;;;5.55;1.65;;;;;;;;;;5039392;28;20616;-69
2022/11/26 08:47:48;;;;;;;8.55;1.88;;;;;;;;;;5035690;28;21294;-67
2022/11/26 08:50:15;;;;;;;7.22;2.03;;;;;;;;;;5030815;28;20383;-66
2022/11/26 08:52:43;;;;;;;6.45;1.80;;;;;;;;;;5035651;28;20063;-68
2022/11/26 08:55:09;;;;;;;6.10;1.60;;;;;;;;;;5036541;28;20132;-69
2022/11/26 08:57:35;;;;;;;5.00;1.60;;;;;;;;;;5033509;28;20048;-69
2022/11/26 09:00:04;;;;;;;6.07;1.80;;;;;;;;;;5034302;28;20056;-68
2022/11/26 09:02:30;;;;;;;6.95;2.20;;;;;;;;;;5034604;28;20517;-70
2022/11/26 09:04:56;;;;;;;4.22;1.85;;;;;;;;;;5038500;28;20066;-69
2022/11/26 09:07:22;;;;;;;13.77;2.00;;;;;;;;;;5040983;28;20539;-69
2022/11/26 09:09:48;;;;;;;7.57;2.00;;;;;;;;;;5035845;28;20521;-69
2022/11/26 09:12:14;;;;;;;7.22;2.13;;;;;;;;;;5034152;28;20132;-70
2022/11/26 09:14:40;;;;;;;6.70;1.98;;;;;;;;;;5034572;28;20058;-69
2022/11/26 09:17:08;;;;;;;6.53;2.25;;;;;;;;;;5037569;28;20136;-69
2022/11/26 09:19:35;;;;;;;8.82;2.40;;;;;;;;;;5033743;28;20442;-67
2022/11/26 09:22:01;;;;;;;10.02;2.70;;;;;;;;;;5034401;28;20049;-69
2022/11/26 09:24:27;;;;;;;9.95;2.60;;;;;;;;;;5034416;28;20048;-69
2022/11/26 09:26:53;;;;;;;10.77;3.00;;;;;;;;;;5034245;28;20063;-68
2022/11/26 09:29:21;;;;;;;6.15;2.53;;;;;;;;;;5035815;28;20106;-71
2022/11/26 09:31:48;;;;;;;7.97;2.85;;;;;;;;;;5035925;28;20468;-71
2022/11/26 09:34:14;;;;;;;9.68;2.70;;;;;;;;;;5033421;28;20048;-70
2022/11/26 09:36:41;;;;;;;6.03;2.55;;;;;;;;;;5031403;28;20481;-70
2022/11/26 09:39:07;;;;;;;8.27;2.75;;;;;;;;;;5033793;28;20049;-69
2022/11/26 09:41:53;;;;;;;7.72;3.03;;;;;;;;;;5040164;28;20053;-66
2022/11/26 09:44:31;;;;;;;8.13;3.17;;;;;;;;;;5033294;28;20099;-70
2022/11/26 09:47:21;;;;;;;6.07;2.83;;;;;;;;;;5038226;28;20068;-71
2022/11/26 09:49:47;;;;;;;16.63;3.10;;;;;;;;;;5034698;28;20048;-77
2022/11/26 09:52:16;;;;;;;11.60;3.17;;;;;;;;;;5032872;28;20057;-72
2022/11/26 09:54:43;;;;;;;12.25;3.05;;;;;;;;;;5042248;28;20102;-74
2022/11/26 09:58:01;;;;;;;9.63;2.95;;;;;;;;;;5029319;28;20128;-72
2022/11/26 10:00:36;;;;;;;6.10;2.53;;;;;;;;;;4992709;28;20563;-73
2022/11/26 10:03:17;;;;;;;9.80;4.05;;;;;;;;;;5035719;28;20053;-69
2022/11/26 10:06:05;;;;;;;9.15;3.20;;;;;;;;;;5033813;28;20367;-72
2022/11/26 10:08:40;;;;;;;9.35;2.88;;;;;;;;;;5034147;28;20074;-69
2022/11/26 10:11:12;;;;;;;7.90;3.00;;;;;;;;;;5033673;28;20049;-68
2022/11/26 10:13:44;;;;;;;6.20;2.78;;;;;;;;;;5036696;28;20114;-70
2022/11/26 10:16:39;;;;;;;8.27;2.95;;;;;;;;;;5031960;28;20114;-70
2022/11/26 10:19:30;;;;;;;7.30;2.88;;;;;;;;;;5013529;28;20127;-73
2022/11/26 10:22:02;;;;;;;6.68;3.42;;;;;;;;;;5036350;28;20052;-71
2022/11/26 10:24:34;;;;;;;8.98;3.28;;;;;;;;;;5018656;28;20131;-74
2022/11/26 10:27:17;;;;;;;5.57;2.80;;;;;;;;;;5037704;28;20158;-70
2022/11/26 10:29:48;;;;;;;5.55;3.22;;;;;;;;;;5034850;28;20048;-74
2022/11/26 10:32:22;;;;;;;11.70;3.10;;;;;;;;;;5037349;28;20044;-70
2022/11/26 10:34:56;;;;;;;5.78;2.53;;;;;;;;;;5031637;28;20056;-75
2022/11/26 10:37:24;;;;;;;4.82;2.72;;;;;;;;;;5013920;28;20049;-71
2022/11/26 10:39:55;;;;;;;6.93;3.05;;;;;;;;;;5028545;28;20308;-75
2022/11/26 10:42:22;;;;;;;8.18;2.83;;;;;;;;;;5032075;28;20068;-68
2022/11/26 10:44:50;;;;;;;9.13;2.80;;;;;;;;;;5030830;28;20128;-72
2022/11/26 10:47:25;;;;;;;5.93;3.17;;;;;;;;;;5036871;28;20079;-69
2022/11/26 10:50:11;;;;;;;6.60;2.67;;;;;;;;;;5028747;28;20052;-72
2022/11/26 10:52:38;;;;;;;8.63;3.30;;;;;;;;;;5032084;28;20049;-76
2022/11/26 10:55:25;;;;;;;5.45;2.78;;;;;;;;;;5026135;28;20056;-71
2022/11/26 10:57:56;;;;;;;8.77;2.35;;;;;;;;;;5033453;28;20825;-73
2022/11/26 11:00:52;;;;;;;5.05;2.08;;;;;;;;;;5032197;28;20056;-74
2022/11/26 11:03:22;;;;;;;7.63;2.20;;;;;;;;;;5015301;28;20052;-71
2022/11/26 11:05:48;;;;;;;3.22;1.80;;;;;;;;;;5031829;28;20072;-70
2022/11/26 11:08:35;;;;;;;5.85;2.25;;;;;;;;;;5026379;28;20063;-71
2022/11/26 11:11:03;;;;;;;9.23;2.03;;;;;;;;;;5038143;28;20052;-70
2022/11/26 11:13:41;;;;;;;5.63;2.40;;;;;;;;;;5035199;28;20171;-74
2022/11/26 11:16:08;;;;;;;5.22;1.90;;;;;;;;;;5034778;28;20454;-75
2022/11/26 11:18:34;;;;;;;5.00;2.08;;;;;;;;;;5031623;28;20053;-67
2022/11/26 11:21:02;;;;;;;7.50;2.25;;;;;;;;;;5027706;28;20061;-74
2022/11/26 11:23:35;;;;;;;6.45;2.05;;;;;;;;;;5030664;28;20116;-72
2022/11/26 11:26:08;;;;;;;8.77;2.40;;;;;;;;;;5027997;28;20100;-73
2022/11/26 11:28:41;;;;;;;5.10;2.05;;;;;;;;;;5013174;28;20061;-71
2022/11/26 11:31:15;;;;;;;6.97;2.10;;;;;;;;;;5037501;28;20045;-73
2022/11/26 11:33:42;;;;;;;8.30;2.10;;;;;;;;;;5039458;28;20162;-71
2022/11/26 11:36:11;;;;;;;6.15;2.05;;;;;;;;;;5040565;28;20449;-74
2022/11/26 11:38:55;;;;;;;3.50;1.70;;;;;;;;;;5035544;28;20045;-73
2022/11/26 11:41:47;;;;;;;4.20;1.42;;;;;;;;;;5034503;28;20966;-73
2022/11/26 11:44:37;;;;;;;4.07;2.05;;;;;;;;;;5033578;28;20053;-70
2022/11/26 11:47:06;;;;;;;5.65;1.90;;;;;;;;;;5040927;28;20041;-70
2022/11/26 11:49:44;;;;;;;3.13;1.75;;;;;;;;;;5040854;28;20057;-72
2022/11/26 11:52:16;;;;;;;4.22;1.58;;;;;;;;;;5036965;28;20685;-69
2022/11/26 11:54:53;;;;;;;10.35;2.10;;;;;;;;;;5037076;28;20045;-71
2022/11/26 11:57:51;;;;;;;4.88;1.73;;;;;;;;;;5036303;28;20129;-73
2022/11/26 12:00:33;;;;;;;11.23;2.17;;;;;;;;;;5032536;28;20056;-69
2022/11/26 12:03:14;;;;;;;3.90;1.52;;;;;;;;;;5035302;28;20110;-71
2022/11/26 12:05:46;;;;;;;5.22;2.22;;;;;;;;;;5038073;28;20553;-71
2022/11/26 12:08:38;;;;;;;5.07;1.50;;;;;;;;;;5037459;28;20059;-71
2022/11/26 12:12:03;;;;;;;4.85;1.40;;;;;;;;;;5035547;28;20048;-70
2022/11/26 12:14:31;;;;;;;4.20;1.30;;;;;;;;;;4971910;28;20515;-71
2022/11/26 12:17:04;;;;;;;3.13;1.33;;;;;;;;;;4972866;28;20192;-79
2022/11/26 12:19:56;;;;;;;3.55;1.52;;;;;;;;;;4970373;28;20820;-83
2022/11/26 12:22:46;;;;;;;3.47;1.40;;;;;;;;;;4973449;28;20528;-77
2022/11/26 12:25:25;;;;;;;4.07;1.15;;;;;;;;;;4976069;28;20058;-73
2022/11/26 12:28:00;;;;;;;3.05;1.15;;;;;;;;;;4979192;28;20057;-70
2022/11/26 12:30:50;;;;;;;3.55;1.50;;;;;;;;;;4974108;28;20056;-73
2022/11/26 12:33:42;;;;;;;3.05;1.00;;;;;;;;;;4977144;28;20062;-78
2022/11/26 12:36:17;;;;;;;3.92;1.20;;;;;;;;;;4966888;28;20050;-72
2022/11/26 12:39:18;;;;;;;2.45;1.08;;;;;;;;;;4960300;28;20536;-69
2022/11/26 12:41:53;;;;;;;5.68;1.40;;;;;;;;;;4938390;28;20054;-69
2022/11/26 12:44:39;;;;;;;3.45;1.00;;;;;;;;;;4986062;28;20075;-72
2022/11/26 12:47:29;;;;;;;2.47;0.98;;;;;;;;;;5027923;28;20083;-71
2022/11/26 12:50:01;;;;;;;2.83;0.95;;;;;;;;;;5024735;28;20927;-75
2022/11/26 12:52:35;;;;;;;2.42;1.00;;;;;;;;;;5032268;28;20103;-73
2022/11/26 12:55:31;;;;;;;2.40;1.20;;;;;;;;;;5040188;28;20059;-73
2022/11/26 12:58:08;;;;;;;4.13;1.02;;;;;;;;;;5043162;28;20122;-85
2022/11/26 13:00:35;;;;;;;4.85;1.80;;;;;;;;;;5037788;28;20061;-76
2022/11/26 13:03:01;;;;;;;3.78;1.55;;;;;;;;;;5033879;28;20680;-72
2022/11/26 13:05:42;;;;;;;5.10;2.28;;;;;;;;;;5037451;28;20048;-76
2022/11/26 13:08:15;;;;;;;6.25;1.70;;;;;;;;;;5039091;28;20494;-73
2022/11/26 13:10:44;;;;;;;4.07;2.28;;;;;;;;;;5034450;28;20049;-75
2022/11/26 13:13:32;;;;;;;5.85;2.33;;;;;;;;;;5017704;28;20087;-74
2022/11/26 13:16:17;;;;;;;5.25;2.30;;;;;;;;;;5036046;28;20053;-77
2022/11/26 13:18:50;;;;;;;6.35;3.22;;;;;;;;;;5029021;28;20094;-78
2022/11/26 13:21:22;;;;;;;4.35;1.92;;;;;;;;;;5036745;28;21087;-77
2022/11/26 13:23:51;;;;;;;7.35;2.35;;;;;;;;;;5031210;28;20076;-77
2022/11/26 13:26:56;;;;;;;4.05;1.70;;;;;;;;;;5036285;28;20107;-77
2022/11/26 13:29:46;;;;;;;5.32;2.10;;;;;;;;;;5034160;28;20523;-79
2022/11/26 13:32:46;;;;;;;5.15;2.70;;;;;;;;;;5036913;28;20071;-77
2022/11/26 13:35:47;;;;;;;9.75;2.25;;;;;;;;;;5033101;28;20064;-75
2022/11/26 13:38:41;;;;;;;6.60;3.03;;;;;;;;;;5031780;28;20054;-74
2022/11/26 13:41:43;;;;;;;6.30;2.72;;;;;;;;;;5038483;28;20119;-73
2022/11/26 13:44:48;;;;;;;5.93;2.03;;;;;;;;;;5029790;28;20048;-68
2022/11/26 13:47:24;;;;;;;4.85;2.65;;;;;;;;;;5020323;28;20139;-72
2022/11/26 13:50:17;;;;;;;12.80;3.20;;;;;;;;;;5029989;28;20431;-74
2022/11/26 13:52:56;;;;;;;7.20;2.92;;;;;;;;;;5022729;28;20045;-76
2022/11/26 13:55:35;;;;;;;5.97;2.88;;;;;;;;;;5030541;28;20327;-78
2022/11/26 13:58:12;;;;;;;9.57;3.38;;;;;;;;;;5035173;28;20615;-77
2022/11/26 14:00:38;;;;;;;8.02;3.17;;;;;;;;;;5029545;28;20084;-71
2022/11/26 14:03:05;;;;;;;6.82;2.97;;;;;;;;;;5033933;28;20084;-75
2022/11/26 14:05:51;;;;;;;6.70;2.95;;;;;;;;;;5035989;28;20052;-74
2022/11/26 14:08:35;;;;;;;5.82;3.03;;;;;;;;;;5014911;28;20048;-72
2022/11/26 14:11:02;;;;;;;4.53;2.58;;;;;;;;;;5038417;28;20087;-75
2022/11/26 14:13:28;;;;;;;5.43;2.47;;;;;;;;;;5040793;28;20242;-73
2022/11/26 14:16:04;;;;;;;4.68;2.38;;;;;;;;;;5039072;28;20630;-79
2022/11/26 14:18:51;;;;;;;5.25;2.85;;;;;;;;;;5031710;28;20049;-82
2022/11/26 14:21:18;;;;;;;6.90;2.97;;;;;;;;;;5035772;28;20071;-78
2022/11/26 14:23:51;;;;;;;5.88;2.80;;;;;;;;;;5033599;28;20049;-72
2022/11/26 14:26:27;;;;;;;7.88;3.13;;;;;;;;;;5033553;28;20060;-78
2022/11/26 14:29:04;;;;;;;5.35;2.50;;;;;;;;;;5016528;28;20161;-75
2022/11/26 14:31:30;;;;;;;6.28;2.40;;;;;;;;;;5036363;28;20756;-74
2022/11/26 14:34:02;;;;;;;10.43;2.60;;;;;;;;;;5036007;28;20052;-73
2022/11/26 14:36:29;;;;;;;7.32;3.15;;;;;;;;;;5033115;28;20051;-80
2022/11/26 14:39:22;;;;;;;5.82;2.40;;;;;;;;;;5037689;28;20045;-81
2022/11/26 14:41:51;;;;;;;9.35;2.60;;;;;;;;;;5035994;28;20644;-80
2022/11/26 14:44:18;;;;;;;5.68;2.78;;;;;;;;;;5040215;28;20053;-74
2022/11/26 14:46:50;;;;;;;7.68;2.90;;;;;;;;;;5037918;28;20306;-74
2022/11/26 14:49:19;;;;;;;8.25;3.55;;;;;;;;;;5028189;28;20057;-73
2022/11/26 14:51:48;;;;;;;6.97;3.30;;;;;;;;;;5049205;28;20048;-71
2022/11/26 14:54:32;;;;;;;5.60;2.70;;;;;;;;;;5041451;28;20053;-71
2022/11/26 14:57:03;;;;;;;5.65;2.72;;;;;;;;;;5045459;28;20053;-72
2022/11/26 14:59:29;;;;;;;5.75;2.58;;;;;;;;;;5033008;28;20044;-68
2022/11/26 15:01:55;;;;;;;8.48;3.13;;;;;;;;;;5052321;28;20048;-72
2022/11/26 15:04:37;;;;;;;12.98;5.20;;;;;;;;;;5052613;28;20068;-71
2022/11/26 15:07:05;;;;;;;6.38;3.63;;;;;;;;;;5041592;28;20050;-71
2022/11/26 15:09:30;;;;;;;5.97;3.38;;;;;;;;;;5040233;28;20117;-77
2022/11/26 15:12:06;;;;;;;5.32;2.53;;;;;;;;;;5034654;28;20052;-74